Portada
METAR-TAF:

METAR-TAF

Aeropuertos :

Aeropuerto Internacional Josefa Camejo

Paraguaná, Venezuela

latitud: 11-47N, longitud: 070-09W, altitud: 23 m

METAR: falta

Hora: 02:51 (06:51 UTC)

Pronóstico

El informe se hizo hace 2 horas y 51 minutos, a las 04:00 UTC
Pronóstico válido del 22 a las 06 UTC al 23 a las 06 UTC
Viento 19 kt del oeste
Visibilidad 10 km o más
Escasas nubes a una altura de 1600 ft
Evolucionando progresivamente
del 22 a las 06 UTC al 22 a las 10 UTC
Viento 13 kt del oeste
Visibilidad 10 km o más
Escasas nubes a una altura de 1600 ft

TAF: SVJC 220400Z 2206/2306 27019KT 9999 FEW016 TX35/2217Z TN262308Z BECMG 2206/2210 27013KT 9999 FEW016

Observaciones y pronósticos meteorológicos de más de 4000 aeropuertos (mensajes METAR y TAF).

Los puntos amarillos y rojos representan las estaciones disponibles.

Ponga el ratón en el punto deseado para ver el nombre de la estación.

Haga clic para ver las observaciones y los pronósticos meteorológicos.

Para cambiar el mapa : haga clic en los botones verdes con una cruz de color negro para hacer un zoom, en el botón verde con un guión para alejar o en las flechas verdes para mapas adyacentes.


METAR-TAF: